Time;durP1;ratioP1;P1;durP2;ratioP2;P2;SDS_P1;SDS_P2;PMS_P1;PMS_P2;Temp;Humidity;BMP_temperature;BMP_pressure;BME280_temperature;BME280_humidity;BME280_pressure;Samples;Min_cycle;Max_cycle;Signal;HPM_P1;HPM_P2
2024/03/18 00:01:00;;;;;;;;;17.75;15.50;;;;;;;;5094762;28;10729;-87
2024/03/18 00:03:28;;;;;;;;;19.25;18.75;;;;;;;;5090921;28;10054;-90
2024/03/18 00:05:56;;;;;;;;;15.25;12.50;;;;;;;;5083994;28;10200;-90
2024/03/18 00:08:25;;;;;;;;;20.25;17.25;;;;;;;;5093201;28;9986;-86
2024/03/18 00:10:52;;;;;;;;;15.00;15.00;;;;;;;;5093806;28;9934;-89
2024/03/18 00:13:21;;;;;;;;;16.00;14.00;;;;;;;;5092948;28;10108;-90
2024/03/18 00:15:48;;;;;;;;;16.00;16.00;;;;;;;;5093125;28;9926;-87
2024/03/18 00:18:15;;;;;;;;;10.75;10.75;;;;;;;;5095141;28;10096;-90
2024/03/18 00:20:43;;;;;;;;;13.75;13.75;;;;;;;;5093070;28;9958;-86
2024/03/18 00:23:10;;;;;;;;;17.25;17.25;;;;;;;;5090756;28;10014;-88
2024/03/18 00:25:37;;;;;;;;;20.25;15.00;;;;;;;;5093463;28;9919;-87
2024/03/18 00:28:07;;;;;;;;;16.75;16.25;;;;;;;;5094229;28;10258;-87
2024/03/18 00:30:36;;;;;;;;;17.75;17.75;;;;;;;;5084052;28;10029;-87
2024/03/18 00:33:05;;;;;;;;;18.00;18.00;;;;;;;;5096547;28;10126;-91
2024/03/18 00:35:32;;;;;;;;;18.25;18.25;;;;;;;;5096234;28;10041;-90
2024/03/18 00:38:00;;;;;;;;;15.50;15.50;;;;;;;;5108740;28;10078;-86
2024/03/18 00:40:27;;;;;;;;;14.50;13.50;;;;;;;;5109751;28;10170;-87
2024/03/18 00:42:53;;;;;;;;;7.75;6.75;;;;;;;;5095435;28;10781;-91
2024/03/18 00:45:20;;;;;;;;;21.25;19.25;;;;;;;;5079483;28;10018;-86
2024/03/18 00:47:49;;;;;;;;;16.75;15.00;;;;;;;;5080229;28;10221;-85
2024/03/18 00:50:17;;;;;;;;;19.50;19.00;;;;;;;;5091188;28;10253;-89
2024/03/18 00:52:44;;;;;;;;;22.25;22.25;;;;;;;;5091911;28;10236;-87
2024/03/18 00:55:11;;;;;;;;;20.25;19.75;;;;;;;;5090532;28;10227;-89
2024/03/18 00:57:39;;;;;;;;;22.00;17.75;;;;;;;;5081669;28;10211;-86
2024/03/18 01:00:11;;;;;;;;;18.50;16.50;;;;;;;;5091039;28;10283;-86
2024/03/18 01:02:40;;;;;;;;;25.75;25.00;;;;;;;;5091822;28;11122;-85
2024/03/18 01:05:10;;;;;;;;;21.25;19.25;;;;;;;;5092564;28;10267;-86
2024/03/18 01:07:40;;;;;;;;;19.25;19.25;;;;;;;;5092960;28;10298;-88
2024/03/18 01:10:09;;;;;;;;;21.00;19.00;;;;;;;;5094944;28;10115;-90
2024/03/18 01:12:36;;;;;;;;;23.25;21.75;;;;;;;;5094495;28;10199;-85
2024/03/18 01:15:07;;;;;;;;;12.25;10.75;;;;;;;;5094512;28;10843;-90
2024/03/18 01:17:34;;;;;;;;;15.00;14.50;;;;;;;;5095224;28;10069;-87
2024/03/18 01:20:09;;;;;;;;;20.50;20.50;;;;;;;;5091315;28;10284;-89
2024/03/18 01:22:38;;;;;;;;;17.25;16.00;;;;;;;;5091986;28;10079;-89
2024/03/18 01:25:06;;;;;;;;;23.75;20.75;;;;;;;;5080432;28;10205;-88
2024/03/18 01:27:33;;;;;;;;;19.75;15.00;;;;;;;;5091239;28;10330;-87
2024/03/18 01:30:01;;;;;;;;;15.75;15.75;;;;;;;;5092708;28;10140;-86
2024/03/18 01:32:28;;;;;;;;;18.25;17.00;;;;;;;;5093546;28;10142;-89
2024/03/18 01:34:55;;;;;;;;;27.50;26.50;;;;;;;;5096161;28;10210;-89
2024/03/18 01:37:23;;;;;;;;;30.50;26.50;;;;;;;;5096417;28;10344;-90
2024/03/18 01:39:52;;;;;;;;;22.75;22.75;;;;;;;;5096422;28;10433;-87
2024/03/18 01:42:20;;;;;;;;;26.00;24.00;;;;;;;;5083795;28;10331;-90
2024/03/18 01:44:53;;;;;;;;;27.75;26.50;;;;;;;;5096790;28;10272;-89
2024/03/18 01:47:21;;;;;;;;;29.00;27.25;;;;;;;;5095999;28;10217;-86
2024/03/18 01:49:48;;;;;;;;;28.00;24.25;;;;;;;;5094331;28;10279;-85
2024/03/18 01:52:16;;;;;;;;;23.00;22.25;;;;;;;;5090289;28;11102;-88
2024/03/18 01:54:43;;;;;;;;;32.00;26.00;;;;;;;;5089985;28;10217;-88
2024/03/18 01:57:12;;;;;;;;;26.75;24.75;;;;;;;;5089978;28;10209;-88
2024/03/18 01:59:40;;;;;;;;;20.50;20.50;;;;;;;;5091494;28;10187;-87
2024/03/18 02:02:07;;;;;;;;;21.50;18.50;;;;;;;;5090580;28;10267;-88
2024/03/18 02:04:36;;;;;;;;;20.25;20.25;;;;;;;;5090460;28;10210;-88
2024/03/18 02:07:03;;;;;;;;;22.75;20.50;;;;;;;;5122601;27;10189;-88
2024/03/18 02:09:30;;;;;;;;;21.75;21.75;;;;;;;;5090569;28;10226;-88
2024/03/18 02:11:58;;;;;;;;;21.50;19.75;;;;;;;;5092561;28;10178;-88
2024/03/18 02:14:28;;;;;;;;;20.50;19.25;;;;;;;;5090998;28;10117;-87
2024/03/18 02:17:03;;;;;;;;;19.25;19.25;;;;;;;;5080247;28;10329;-87
2024/03/18 02:19:31;;;;;;;;;20.75;18.75;;;;;;;;5090799;28;10076;-90
2024/03/18 02:21:58;;;;;;;;;19.00;17.75;;;;;;;;5093402;28;10103;-87
2024/03/18 02:24:27;;;;;;;;;18.00;18.00;;;;;;;;5093765;28;10138;-87
2024/03/18 02:26:55;;;;;;;;;28.00;25.25;;;;;;;;5090939;28;10109;-87
2024/03/18 02:29:23;;;;;;;;;24.50;21.50;;;;;;;;5090123;28;10317;-88
2024/03/18 02:31:50;;;;;;;;;21.75;20.50;;;;;;;;5086595;28;10298;-87
2024/03/18 02:34:17;;;;;;;;;18.75;18.50;;;;;;;;5089568;28;10231;-88
2024/03/18 02:36:45;;;;;;;;;21.75;21.50;;;;;;;;5089790;28;10098;-85
2024/03/18 02:39:12;;;;;;;;;21.75;21.75;;;;;;;;5088728;28;10110;-87
2024/03/18 02:41:41;;;;;;;;;19.75;19.00;;;;;;;;5074628;28;10461;-88
2024/03/18 02:44:12;;;;;;;;;21.00;18.75;;;;;;;;5080221;28;10117;-86
2024/03/18 02:46:39;;;;;;;;;19.25;19.25;;;;;;;;5089001;28;10184;-89
2024/03/18 02:49:06;;;;;;;;;20.00;20.00;;;;;;;;5089828;28;10206;-88
2024/03/18 02:51:33;;;;;;;;;22.25;18.50;;;;;;;;5089747;28;10160;-89
2024/03/18 02:54:01;;;;;;;;;20.00;19.25;;;;;;;;5090035;28;10106;-88
2024/03/18 02:56:31;;;;;;;;;19.75;19.75;;;;;;;;5089094;28;10197;-85
2024/03/18 02:59:01;;;;;;;;;19.25;19.25;;;;;;;;5089971;28;10316;-85
2024/03/18 03:01:29;;;;;;;;;21.75;20.25;;;;;;;;5089803;28;10030;-87
2024/03/18 03:03:58;;;;;;;;;21.50;21.50;;;;;;;;5089510;28;10213;-91
2024/03/18 03:06:28;;;;;;;;;20.25;16.50;;;;;;;;5090309;28;10260;-91
2024/03/18 03:08:57;;;;;;;;;20.50;20.00;;;;;;;;5091241;28;10084;-86
2024/03/18 03:11:24;;;;;;;;;16.00;16.00;;;;;;;;5102793;28;10109;-83
2024/03/18 03:13:51;;;;;;;;;19.00;19.00;;;;;;;;5108923;28;10003;-87
2024/03/18 03:16:20;;;;;;;;;23.00;23.00;;;;;;;;5090624;28;10168;-87
2024/03/18 03:18:48;;;;;;;;;29.25;29.25;;;;;;;;5090567;28;10189;-88
2024/03/18 03:21:19;;;;;;;;;49.75;42.25;;;;;;;;5092735;28;10359;-88
2024/03/18 03:23:47;;;;;;;;;52.25;43.50;;;;;;;;5093853;28;10999;-88
2024/03/18 03:26:15;;;;;;;;;56.00;46.00;;;;;;;;5094999;28;11300;-89
2024/03/18 03:28:42;;;;;;;;;48.75;41.25;;;;;;;;5094805;28;11191;-86
2024/03/18 03:31:14;;;;;;;;;48.50;42.00;;;;;;;;5095135;28;10906;-90
2024/03/18 03:33:43;;;;;;;;;46.75;39.50;;;;;;;;5095141;28;11004;-89
2024/03/18 03:36:11;;;;;;;;;50.00;39.75;;;;;;;;5082447;28;10821;-89
2024/03/18 03:38:39;;;;;;;;;49.75;40.00;;;;;;;;5082163;28;10821;-88
2024/03/18 03:41:06;;;;;;;;;48.00;41.50;;;;;;;;5090687;28;10931;-87
2024/03/18 03:43:34;;;;;;;;;48.00;39.75;;;;;;;;5090966;28;10699;-88
2024/03/18 03:46:02;;;;;;;;;46.25;38.00;;;;;;;;5091023;28;10663;-86
2024/03/18 03:48:30;;;;;;;;;43.50;37.25;;;;;;;;5089385;28;10678;-88
2024/03/18 03:50:59;;;;;;;;;39.00;36.00;;;;;;;;5089265;28;10676;-89
2024/03/18 03:53:27;;;;;;;;;47.25;38.75;;;;;;;;5089718;28;10559;-90
2024/03/18 03:55:56;;;;;;;;;47.00;39.25;;;;;;;;5088780;28;10551;-88
2024/03/18 03:58:23;;;;;;;;;38.25;34.50;;;;;;;;5089322;28;10491;-90
2024/03/18 04:00:52;;;;;;;;;37.25;34.75;;;;;;;;5088011;28;10320;-87
2024/03/18 04:03:21;;;;;;;;;45.75;38.00;;;;;;;;5089908;28;10372;-88
2024/03/18 04:05:48;;;;;;;;;42.25;35.00;;;;;;;;5090015;28;10884;-90
2024/03/18 04:08:17;;;;;;;;;38.25;33.50;;;;;;;;5094728;28;10381;-85
2024/03/18 04:10:44;;;;;;;;;35.00;32.25;;;;;;;;5093442;28;11099;-89
2024/03/18 04:13:12;;;;;;;;;29.00;27.75;;;;;;;;5092022;28;10118;-88
2024/03/18 04:15:39;;;;;;;;;41.00;35.00;;;;;;;;5089815;28;10214;-87
2024/03/18 04:18:08;;;;;;;;;37.00;34.00;;;;;;;;5092549;28;10200;-90
2024/03/18 04:20:36;;;;;;;;;43.50;35.75;;;;;;;;5091397;28;10210;-89
2024/03/18 04:23:06;;;;;;;;;39.50;33.75;;;;;;;;5092490;28;10044;-90
2024/03/18 04:25:35;;;;;;;;;33.50;32.25;;;;;;;;5092220;28;10133;-89
2024/03/18 04:28:06;;;;;;;;;41.50;35.00;;;;;;;;5092180;28;10096;-90
2024/03/18 04:30:34;;;;;;;;;42.50;35.25;;;;;;;;5092232;28;10883;-89
2024/03/18 04:33:04;;;;;;;;;35.75;32.75;;;;;;;;5092032;28;10221;-89
2024/03/18 04:35:31;;;;;;;;;32.00;31.00;;;;;;;;5092320;28;10210;-90
2024/03/18 04:38:01;;;;;;;;;37.00;34.75;;;;;;;;5092307;28;10163;-90
2024/03/18 04:40:29;;;;;;;;;40.00;35.75;;;;;;;;5092544;28;10118;-87
2024/03/18 04:42:58;;;;;;;;;37.25;35.00;;;;;;;;5091947;28;10115;-87
2024/03/18 04:45:26;;;;;;;;;36.75;33.25;;;;;;;;5092045;28;10042;-90
2024/03/18 04:47:54;;;;;;;;;30.00;30.00;;;;;;;;5090876;28;9841;-89
2024/03/18 04:50:23;;;;;;;;;37.25;34.00;;;;;;;;5092151;28;9924;-88
2024/03/18 04:52:51;;;;;;;;;35.00;32.00;;;;;;;;5091608;28;9942;-89
2024/03/18 04:55:19;;;;;;;;;35.25;32.00;;;;;;;;5093956;28;9948;-85
2024/03/18 04:57:52;;;;;;;;;32.50;30.50;;;;;;;;5094825;28;9931;-87
2024/03/18 05:00:22;;;;;;;;;30.00;30.00;;;;;;;;5097770;28;9884;-88
2024/03/18 05:02:49;;;;;;;;;30.75;30.25;;;;;;;;5092293;28;9947;-87
2024/03/18 05:05:17;;;;;;;;;34.75;31.25;;;;;;;;5093145;28;9870;-87
2024/03/18 05:07:45;;;;;;;;;34.75;33.00;;;;;;;;5092013;28;9945;-88
2024/03/18 05:10:16;;;;;;;;;35.75;31.50;;;;;;;;5092377;28;9993;-86
2024/03/18 05:12:44;;;;;;;;;36.00;31.75;;;;;;;;5094788;28;9997;-89
2024/03/18 05:15:11;;;;;;;;;39.50;32.75;;;;;;;;5096156;28;9855;-86
2024/03/18 05:17:40;;;;;;;;;32.75;30.75;;;;;;;;5097058;28;9890;-86
2024/03/18 05:20:12;;;;;;;;;28.75;27.25;;;;;;;;5096569;28;10077;-86
2024/03/18 05:22:43;;;;;;;;;30.25;28.50;;;;;;;;5096840;28;9712;-86
2024/03/18 05:25:13;;;;;;;;;31.00;30.75;;;;;;;;5096802;28;10505;-87
2024/03/18 05:27:40;;;;;;;;;32.00;31.00;;;;;;;;5095955;28;9696;-85
2024/03/18 05:30:12;;;;;;;;;33.00;32.00;;;;;;;;5092192;28;9848;-86
2024/03/18 05:32:43;;;;;;;;;34.00;32.75;;;;;;;;5090347;28;9896;-85
2024/03/18 05:35:10;;;;;;;;;35.75;32.50;;;;;;;;5090260;28;9861;-86
2024/03/18 05:37:43;;;;;;;;;38.75;33.00;;;;;;;;5091809;28;9791;-86
2024/03/18 05:40:14;;;;;;;;;32.00;31.00;;;;;;;;5079184;28;9950;-83
2024/03/18 05:42:41;;;;;;;;;37.75;33.25;;;;;;;;5101120;28;9869;-81
2024/03/18 05:45:09;;;;;;;;;49.00;41.50;;;;;;;;5099059;28;9935;-86
2024/03/18 05:47:37;;;;;;;;;43.25;38.50;;;;;;;;5090835;28;10713;-89
2024/03/18 05:50:20;;;;;;;;;39.00;34.50;;;;;;;;5090356;28;10615;-84
2024/03/18 05:52:48;;;;;;;;;33.25;31.25;;;;;;;;5090176;28;10263;-86
2024/03/18 05:55:19;;;;;;;;;36.00;30.75;;;;;;;;5090605;28;9810;-86
2024/03/18 05:58:04;;;;;;;;;30.00;28.25;;;;;;;;5091166;28;9952;-84
2024/03/18 06:00:32;;;;;;;;;26.50;26.50;;;;;;;;5082720;28;9721;-85
2024/03/18 06:03:02;;;;;;;;;29.50;29.00;;;;;;;;5093992;28;9887;-86
2024/03/18 06:05:33;;;;;;;;;30.00;28.00;;;;;;;;5091984;28;10557;-85
2024/03/18 06:08:04;;;;;;;;;31.00;28.75;;;;;;;;5084934;28;10731;-78
2024/03/18 06:10:36;;;;;;;;;20.25;20.25;;;;;;;;5085105;28;9891;-80
2024/03/18 06:13:03;;;;;;;;;29.50;28.25;;;;;;;;5081407;28;9791;-79
2024/03/18 06:15:40;;;;;;;;;33.50;28.50;;;;;;;;5075719;28;9766;-78
2024/03/18 06:18:10;;;;;;;;;26.25;26.25;;;;;;;;5089660;28;9883;-83
2024/03/18 06:20:42;;;;;;;;;32.00;29.00;;;;;;;;5086742;28;9892;-81
2024/03/18 06:23:10;;;;;;;;;27.50;26.50;;;;;;;;5083916;28;10645;-77
2024/03/18 06:25:55;;;;;;;;;27.00;27.00;;;;;;;;5088124;28;9842;-77
2024/03/18 06:28:22;;;;;;;;;30.50;27.00;;;;;;;;5089585;28;9915;-78
2024/03/18 06:30:52;;;;;;;;;23.75;23.75;;;;;;;;5088357;28;9880;-78
2024/03/18 06:33:21;;;;;;;;;35.25;31.50;;;;;;;;5088063;28;10199;-78
2024/03/18 06:35:55;;;;;;;;;25.75;25.75;;;;;;;;5088549;28;10031;-78
2024/03/18 06:38:22;;;;;;;;;23.00;23.00;;;;;;;;5088100;28;10027;-79
2024/03/18 06:40:54;;;;;;;;;23.00;20.00;;;;;;;;5088385;28;9704;-78
2024/03/18 06:43:36;;;;;;;;;7.75;6.25;;;;;;;;5088028;28;10513;-78
2024/03/18 06:46:09;;;;;;;;;24.50;23.00;;;;;;;;5088379;28;9859;-80
2024/03/18 06:48:36;;;;;;;;;21.50;21.50;;;;;;;;5089138;28;9755;-80
2024/03/18 06:51:13;;;;;;;;;24.50;23.25;;;;;;;;5088981;28;9792;-80
2024/03/18 06:53:43;;;;;;;;;27.50;26.75;;;;;;;;5088474;28;9629;-79
2024/03/18 06:56:11;;;;;;;;;26.75;24.50;;;;;;;;5088877;28;10015;-78
2024/03/18 06:58:39;;;;;;;;;21.75;20.25;;;;;;;;5090407;28;9690;-79
2024/03/18 07:01:08;;;;;;;;;21.75;21.00;;;;;;;;5090338;28;9725;-79
2024/03/18 07:03:37;;;;;;;;;20.50;20.50;;;;;;;;5092326;28;9600;-77
2024/03/18 07:06:05;;;;;;;;;21.50;20.75;;;;;;;;5091035;28;9727;-78
2024/03/18 07:08:33;;;;;;;;;21.00;17.75;;;;;;;;5091505;28;9595;-79
2024/03/18 07:11:01;;;;;;;;;24.25;23.75;;;;;;;;5091686;28;10336;-79
2024/03/18 07:13:28;;;;;;;;;26.50;24.25;;;;;;;;5092242;28;9956;-79
2024/03/18 07:15:55;;;;;;;;;24.00;21.75;;;;;;;;5071435;28;9952;-78
2024/03/18 07:18:23;;;;;;;;;19.50;18.00;;;;;;;;5082976;28;9814;-79
2024/03/18 07:20:50;;;;;;;;;14.50;13.00;;;;;;;;5076357;28;9553;-78
2024/03/18 07:23:18;;;;;;;;;15.75;14.75;;;;;;;;5087077;28;9557;-78
2024/03/18 07:25:46;;;;;;;;;21.00;21.00;;;;;;;;5088009;28;9445;-79
2024/03/18 07:28:14;;;;;;;;;15.00;15.00;;;;;;;;5087334;28;9522;-78
2024/03/18 07:30:41;;;;;;;;;16.50;16.00;;;;;;;;5087297;28;9326;-78
2024/03/18 07:33:08;;;;;;;;;17.33;15.67;;;;;;;;5087455;28;9585;-78
2024/03/18 07:35:35;;;;;;;;;21.67;20.00;;;;;;;;5087877;28;9258;-77
2024/03/18 07:38:03;;;;;;;;;20.33;19.00;;;;;;;;5087523;28;9394;-77
2024/03/18 07:40:30;;;;;;;;;20.00;18.00;;;;;;;;5088240;28;9401;-78
2024/03/18 07:42:59;;;;;;;;;20.67;19.33;;;;;;;;5088340;28;9696;-78
2024/03/18 07:45:26;;;;;;;;;20.33;20.33;;;;;;;;5090887;28;9382;-79
2024/03/18 07:47:53;;;;;;;;;22.75;18.50;;;;;;;;5091423;28;9636;-78
2024/03/18 07:50:21;;;;;;;;;21.00;21.00;;;;;;;;5090297;28;10259;-78
2024/03/18 07:52:48;;;;;;;;;21.67;21.00;;;;;;;;5090825;28;10081;-78
2024/03/18 07:55:18;;;;;;;;;18.33;15.67;;;;;;;;5081486;28;10148;-78
2024/03/18 07:57:45;;;;;;;;;22.33;20.67;;;;;;;;5089383;28;9307;-78
2024/03/18 08:00:15;;;;;;;;;18.33;18.33;;;;;;;;5091071;28;9309;-77
2024/03/18 08:02:42;;;;;;;;;19.00;19.00;;;;;;;;5091403;28;9431;-80
2024/03/18 08:05:10;;;;;;;;;15.33;14.67;;;;;;;;5091362;28;9426;-78
2024/03/18 08:07:37;;;;;;;;;18.00;18.00;;;;;;;;5090773;28;9321;-76
2024/03/18 08:10:05;;;;;;;;;19.00;19.00;;;;;;;;5091907;28;9312;-77
2024/03/18 08:12:32;;;;;;;;;24.00;22.00;;;;;;;;5087864;28;9327;-76
2024/03/18 08:15:00;;;;;;;;;24.00;21.33;;;;;;;;5085623;28;10128;-78
2024/03/18 08:17:28;;;;;;;;;20.00;18.00;;;;;;;;5090519;28;9266;-77
2024/03/18 08:19:55;;;;;;;;;20.33;18.67;;;;;;;;5090691;28;9331;-77
2024/03/18 08:22:23;;;;;;;;;16.33;16.33;;;;;;;;5090625;28;9348;-78
2024/03/18 08:24:50;;;;;;;;;12.00;12.00;;;;;;;;5090717;28;9419;-78
2024/03/18 08:27:17;;;;;;;;;17.00;17.00;;;;;;;;5090612;28;9172;-77
2024/03/18 08:29:44;;;;;;;;;18.33;16.33;;;;;;;;5085077;28;9096;-76
2024/03/18 08:32:11;;;;;;;;;18.33;18.33;;;;;;;;5089921;28;9055;-77
2024/03/18 08:34:43;;;;;;;;;16.00;16.00;;;;;;;;5089850;28;9028;-77
2024/03/18 08:37:10;;;;;;;;;16.00;15.00;;;;;;;;5090846;28;9132;-78
2024/03/18 08:39:39;;;;;;;;;12.67;12.67;;;;;;;;5090844;28;9011;-76
2024/03/18 08:42:06;;;;;;;;;15.00;15.00;;;;;;;;5091077;28;8936;-78
2024/03/18 08:44:34;;;;;;;;;20.33;18.67;;;;;;;;5089984;28;8935;-76
2024/03/18 08:47:01;;;;;;;;;19.00;19.00;;;;;;;;5083910;28;9089;-76
2024/03/18 08:49:28;;;;;;;;;27.33;27.00;;;;;;;;5093521;28;9345;-76
2024/03/18 08:51:57;;;;;;;;;19.00;18.00;;;;;;;;5094213;28;9172;-76
2024/03/18 08:54:24;;;;;;;;;25.67;23.67;;;;;;;;5094339;28;9580;-76
2024/03/18 08:56:51;;;;;;;;;15.67;15.67;;;;;;;;5094926;28;9106;-75
2024/03/18 08:59:19;;;;;;;;;15.75;14.00;;;;;;;;5093620;28;8931;-77
2024/03/18 09:01:46;;;;;;;;;9.50;8.00;;;;;;;;5093604;28;8879;-77
2024/03/18 09:04:13;;;;;;;;;14.75;13.00;;;;;;;;5089704;28;8840;-77
2024/03/18 09:06:40;;;;;;;;;15.00;15.00;;;;;;;;5090401;28;8840;-77
2024/03/18 09:09:20;;;;;;;;;11.25;11.25;;;;;;;;5091541;28;8850;-79
2024/03/18 09:11:49;;;;;;;;;8.50;8.50;;;;;;;;5089618;28;8875;-77
2024/03/18 09:14:16;;;;;;;;;10.00;9.25;;;;;;;;5076839;28;8852;-76
2024/03/18 09:16:43;;;;;;;;;6.50;6.50;;;;;;;;5089353;28;9673;-76
2024/03/18 09:19:10;;;;;;;;;16.25;11.75;;;;;;;;5089652;28;8858;-78
2024/03/18 09:21:38;;;;;;;;;8.00;8.00;;;;;;;;5089700;28;8871;-75
2024/03/18 09:24:05;;;;;;;;;7.50;7.50;;;;;;;;5089753;28;8909;-75
2024/03/18 09:26:34;;;;;;;;;8.25;8.25;;;;;;;;5089685;28;8863;-75
2024/03/18 09:29:01;;;;;;;;;7.00;7.00;;;;;;;;5090273;28;8820;-75
2024/03/18 09:31:28;;;;;;;;;10.50;9.00;;;;;;;;5089815;28;8898;-75
2024/03/18 09:33:55;;;;;;;;;6.00;6.00;;;;;;;;5091729;28;8860;-76
2024/03/18 09:36:23;;;;;;;;;8.00;8.00;;;;;;;;5092884;28;8863;-76
2024/03/18 09:38:50;;;;;;;;;8.50;8.00;;;;;;;;5091893;28;8882;-76
2024/03/18 09:41:19;;;;;;;;;12.00;10.75;;;;;;;;5089151;28;8978;-77
2024/03/18 09:43:48;;;;;;;;;11.25;10.50;;;;;;;;5089267;28;8931;-78
2024/03/18 09:46:17;;;;;;;;;8.00;5.00;;;;;;;;5088840;28;8879;-76
2024/03/18 09:48:44;;;;;;;;;8.25;6.50;;;;;;;;5089157;28;8855;-76
2024/03/18 09:51:16;;;;;;;;;5.00;3.00;;;;;;;;5088729;28;8860;-77
2024/03/18 09:53:45;;;;;;;;;4.75;4.75;;;;;;;;5089348;28;8847;-77
2024/03/18 09:56:14;;;;;;;;;6.00;6.00;;;;;;;;5088714;28;8836;-77
2024/03/18 09:58:41;;;;;;;;;7.00;5.50;;;;;;;;5089374;28;8890;-78
2024/03/18 10:01:13;;;;;;;;;6.75;6.25;;;;;;;;5087556;28;8793;-78
2024/03/18 10:03:41;;;;;;;;;6.75;5.50;;;;;;;;5089056;28;8856;-78
2024/03/18 10:06:09;;;;;;;;;4.00;4.00;;;;;;;;5087542;28;8855;-77
2024/03/18 10:08:39;;;;;;;;;4.00;4.00;;;;;;;;5084114;28;9673;-78
2024/03/18 10:11:07;;;;;;;;;8.25;3.00;;;;;;;;5068535;28;8867;-78
2024/03/18 10:13:35;;;;;;;;;4.00;4.00;;;;;;;;5068611;28;8899;-78
2024/03/18 10:16:03;;;;;;;;;3.25;3.00;;;;;;;;5068557;28;8873;-78
2024/03/18 10:18:35;;;;;;;;;3.00;3.00;;;;;;;;5068313;28;8940;-79
2024/03/18 10:21:03;;;;;;;;;3.00;3.00;;;;;;;;5059165;28;8875;-78
2024/03/18 10:23:30;;;;;;;;;2.50;2.25;;;;;;;;5068392;28;8869;-80
2024/03/18 10:26:01;;;;;;;;;3.50;2.00;;;;;;;;5068362;28;8893;-80
2024/03/18 10:28:28;;;;;;;;;3.75;3.75;;;;;;;;5068215;28;8958;-79
2024/03/18 10:30:57;;;;;;;;;4.75;4.75;;;;;;;;5068388;28;8809;-80
2024/03/18 10:33:25;;;;;;;;;6.75;3.75;;;;;;;;5069527;28;9668;-79
2024/03/18 10:35:56;;;;;;;;;3.00;3.00;;;;;;;;5071039;28;8851;-80
2024/03/18 10:38:24;;;;;;;;;9.25;8.50;;;;;;;;5070576;28;8866;-80
2024/03/18 10:40:54;;;;;;;;;5.50;3.50;;;;;;;;5071513;28;8962;-78
2024/03/18 10:43:36;;;;;;;;;6.50;4.00;;;;;;;;5071063;28;8847;-77
2024/03/18 10:46:03;;;;;;;;;4.75;3.50;;;;;;;;5070619;28;8867;-79
2024/03/18 10:48:34;;;;;;;;;1.75;1.75;;;;;;;;5072324;28;8831;-78
2024/03/18 10:51:03;;;;;;;;;2.00;2.00;;;;;;;;5070699;28;8878;-78
2024/03/18 10:53:31;;;;;;;;;2.75;1.00;;;;;;;;5060047;28;8891;-78
2024/03/18 10:56:00;;;;;;;;;3.25;2.00;;;;;;;;5063952;28;8839;-78
2024/03/18 10:58:30;;;;;;;;;2.00;1.75;;;;;;;;5067517;28;8858;-78
2024/03/18 11:00:58;;;;;;;;;1.00;1.00;;;;;;;;5065881;28;8799;-78
2024/03/18 11:03:26;;;;;;;;;1.00;1.00;;;;;;;;5067792;28;8882;-78
2024/03/18 11:05:55;;;;;;;;;1.50;1.00;;;;;;;;5067152;28;8960;-78
2024/03/18 11:08:24;;;;;;;;;1.00;1.00;;;;;;;;5067971;28;8882;-79
2024/03/18 11:10:56;;;;;;;;;1.00;1.00;;;;;;;;5067755;28;8869;-79
2024/03/18 11:13:36;;;;;;;;;1.00;1.00;;;;;;;;5067752;28;8858;-79
2024/03/18 11:16:06;;;;;;;;;1.00;1.00;;;;;;;;5056596;28;8912;-78
2024/03/18 11:18:34;;;;;;;;;0.50;0.50;;;;;;;;5069500;28;8835;-80
2024/03/18 11:21:03;;;;;;;;;1.00;1.00;;;;;;;;5069480;28;8895;-78
2024/03/18 11:23:33;;;;;;;;;0.50;0.50;;;;;;;;5069513;28;8842;-78
2024/03/18 11:26:08;;;;;;;;;1.75;1.75;;;;;;;;5071672;28;8858;-76
2024/03/18 11:28:36;;;;;;;;;1.00;1.00;;;;;;;;5072746;28;8855;-76
2024/03/18 11:31:04;;;;;;;;;1.75;1.75;;;;;;;;5071182;28;9591;-76
2024/03/18 11:33:36;;;;;;;;;1.75;0.75;;;;;;;;5071389;28;8965;-77
2024/03/18 11:36:04;;;;;;;;;0.25;0.25;;;;;;;;5071846;28;9550;-77
2024/03/18 11:38:33;;;;;;;;;1.25;1.00;;;;;;;;5071106;28;8881;-79
2024/03/18 11:41:00;;;;;;;;;1.00;1.00;;;;;;;;5071620;28;8969;-79
2024/03/18 11:43:28;;;;;;;;;2.00;1.00;;;;;;;;5070971;28;8843;-78
2024/03/18 11:45:57;;;;;;;;;2.00;1.75;;;;;;;;5071329;28;8855;-78
2024/03/18 11:48:24;;;;;;;;;0.25;0.25;;;;;;;;5059185;28;8866;-79
2024/03/18 11:50:52;;;;;;;;;2.00;1.00;;;;;;;;5071189;28;8874;-77
2024/03/18 11:53:20;;;;;;;;;2.40;0.80;;;;;;;;5071077;28;8850;-77
2024/03/18 11:55:52;;;;;;;;;0.60;0.00;;;;;;;;5071065;28;8871;-77
2024/03/18 11:58:20;;;;;;;;;2.00;2.00;;;;;;;;5068110;28;8853;-79
2024/03/18 12:00:49;;;;;;;;;1.00;1.00;;;;;;;;5067024;28;8799;-77
2024/03/18 12:03:16;;;;;;;;;1.40;1.40;;;;;;;;5069423;28;8889;-79
2024/03/18 12:05:45;;;;;;;;;1.00;1.00;;;;;;;;5070980;28;9621;-78
2024/03/18 12:08:18;;;;;;;;;1.60;0.80;;;;;;;;5070801;28;8858;-80
2024/03/18 12:10:47;;;;;;;;;2.00;2.00;;;;;;;;5070705;28;8831;-80
2024/03/18 12:13:16;;;;;;;;;0.40;0.40;;;;;;;;5070528;28;8867;-80
2024/03/18 12:15:44;;;;;;;;;1.00;1.00;;;;;;;;5070805;28;8846;-80
2024/03/18 12:18:12;;;;;;;;;2.20;2.00;;;;;;;;5071068;28;8885;-80
2024/03/18 12:20:39;;;;;;;;;2.00;1.80;;;;;;;;5071379;28;8884;-79
2024/03/18 12:23:06;;;;;;;;;0.80;0.80;;;;;;;;5073308;28;8870;-80
2024/03/18 12:28:36;;;;;;;;;0.80;0.80;;;;;;;;5070577;28;8815;-80
2024/03/18 12:31:05;;;;;;;;;1.40;1.40;;;;;;;;5073256;28;9628;-77
2024/03/18 12:33:37;;;;;;;;;0.60;0.60;;;;;;;;5073978;28;8859;-79
2024/03/18 12:36:08;;;;;;;;;0.80;0.80;;;;;;;;5074036;28;9685;-79
2024/03/18 12:38:39;;;;;;;;;2.00;0.60;;;;;;;;5073002;28;8916;-79
2024/03/18 12:41:06;;;;;;;;;1.20;1.20;;;;;;;;5070553;28;8867;-79
2024/03/18 12:43:35;;;;;;;;;1.00;1.00;;;;;;;;5070488;28;8866;-79
2024/03/18 12:46:02;;;;;;;;;1.00;1.00;;;;;;;;5069987;28;8854;-79
2024/03/18 12:48:29;;;;;;;;;1.60;1.60;;;;;;;;5070569;28;9622;-79
2024/03/18 12:50:59;;;;;;;;;2.20;1.00;;;;;;;;5069675;28;8893;-79
2024/03/18 12:53:26;;;;;;;;;0.00;0.00;;;;;;;;5069696;28;9668;-79
2024/03/18 12:55:54;;;;;;;;;1.80;1.40;;;;;;;;5069800;28;8842;-80
2024/03/18 12:58:21;;;;;;;;;1.00;1.00;;;;;;;;5069606;28;8872;-79
2024/03/18 13:00:50;;;;;;;;;1.60;1.60;;;;;;;;5069155;28;8818;-79
2024/03/18 13:03:18;;;;;;;;;1.80;1.80;;;;;;;;5070318;28;8870;-78
2024/03/18 13:05:48;;;;;;;;;2.80;2.20;;;;;;;;5069892;28;8939;-80
2024/03/18 13:08:15;;;;;;;;;2.20;0.80;;;;;;;;5072032;28;8924;-80
2024/03/18 13:10:43;;;;;;;;;5.60;2.80;;;;;;;;5072525;28;8846;-79
2024/03/18 13:13:13;;;;;;;;;1.40;1.40;;;;;;;;5073662;28;9609;-80
2024/03/18 13:15:44;;;;;;;;;2.80;2.80;;;;;;;;5071832;28;8861;-80
2024/03/18 13:18:13;;;;;;;;;1.20;1.20;;;;;;;;5070059;28;8850;-79
2024/03/18 13:20:41;;;;;;;;;2.20;2.20;;;;;;;;5056746;28;8846;-79
2024/03/18 13:23:10;;;;;;;;;5.40;2.40;;;;;;;;5069024;28;8851;-78
2024/03/18 13:25:39;;;;;;;;;2.40;2.40;;;;;;;;5069467;28;8850;-79
2024/03/18 13:28:06;;;;;;;;;2.20;1.20;;;;;;;;5069320;28;8859;-80
2024/03/18 13:30:34;;;;;;;;;2.00;2.00;;;;;;;;5069209;28;8790;-80
2024/03/18 13:33:01;;;;;;;;;1.60;1.60;;;;;;;;5068919;28;8846;-80
2024/03/18 13:35:33;;;;;;;;;2.40;1.00;;;;;;;;5069419;28;8881;-79
2024/03/18 13:38:00;;;;;;;;;1.20;1.20;;;;;;;;5068483;28;8854;-78
2024/03/18 13:40:29;;;;;;;;;3.80;2.80;;;;;;;;5069255;28;9476;-78
2024/03/18 13:42:56;;;;;;;;;2.00;2.00;;;;;;;;5068721;28;8871;-78
2024/03/18 13:45:24;;;;;;;;;2.00;2.00;;;;;;;;5069666;28;8850;-78
2024/03/18 13:47:53;;;;;;;;;4.40;3.40;;;;;;;;5068376;28;8851;-79
2024/03/18 13:50:24;;;;;;;;;2.00;0.80;;;;;;;;5069203;28;8851;-78
2024/03/18 13:52:53;;;;;;;;;4.80;3.60;;;;;;;;5069175;28;9641;-78
2024/03/18 13:55:21;;;;;;;;;2.60;2.60;;;;;;;;5069237;28;8872;-78
2024/03/18 13:57:50;;;;;;;;;2.80;2.80;;;;;;;;5068796;28;8851;-78
2024/03/18 14:00:20;;;;;;;;;4.40;2.00;;;;;;;;5068484;28;9434;-78
2024/03/18 14:02:47;;;;;;;;;3.60;3.60;;;;;;;;5068876;28;8862;-78
2024/03/18 14:05:15;;;;;;;;;3.00;3.00;;;;;;;;5068833;28;8873;-78
2024/03/18 14:07:42;;;;;;;;;4.00;3.00;;;;;;;;5067924;28;8867;-78
2024/03/18 14:10:11;;;;;;;;;3.80;3.80;;;;;;;;5070824;28;8969;-81
2024/03/18 14:12:39;;;;;;;;;5.20;3.00;;;;;;;;5072975;28;8859;-79
2024/03/18 14:15:07;;;;;;;;;2.80;2.80;;;;;;;;5073263;28;8878;-79
2024/03/18 14:17:34;;;;;;;;;2.80;2.80;;;;;;;;5073816;28;8910;-77
2024/03/18 14:20:05;;;;;;;;;3.80;3.80;;;;;;;;5073173;28;8855;-79
2024/03/18 14:22:33;;;;;;;;;5.00;5.00;;;;;;;;5073429;28;9009;-78
2024/03/18 14:25:00;;;;;;;;;3.00;3.00;;;;;;;;5072777;28;8861;-78
2024/03/18 14:27:32;;;;;;;;;4.00;3.40;;;;;;;;5062424;28;8908;-78
2024/03/18 14:30:00;;;;;;;;;3.00;3.00;;;;;;;;5067501;28;8927;-78
2024/03/18 14:32:27;;;;;;;;;4.40;4.40;;;;;;;;5068111;28;8853;-78
2024/03/18 14:34:55;;;;;;;;;3.80;3.80;;;;;;;;5067467;28;8835;-78
2024/03/18 14:37:23;;;;;;;;;5.00;5.00;;;;;;;;5067896;28;8846;-78
2024/03/18 14:39:50;;;;;;;;;5.60;5.00;;;;;;;;5067863;28;8920;-78
2024/03/18 14:42:17;;;;;;;;;5.60;3.40;;;;;;;;5068273;28;8886;-78
2024/03/18 14:44:46;;;;;;;;;5.20;3.60;;;;;;;;5067967;28;8876;-78
2024/03/18 14:47:13;;;;;;;;;3.80;3.80;;;;;;;;5068251;28;8847;-78